Waldport, OR (97394)

03:07 PM PDT am 27. März 2015 (GMT -0700)
Mr.Wizard | | Change Station
CLOSE
Current Station
Persönliche Wetterstationen
Location: Waldport, OR
Höhe: 56 ft
Wetterstationen in der Umgebung

Höhe 56 ft 44.42 °N, 124.08 °W | Updated 1 second ago

Bedeckt
Bedeckt
58.9 °F
gefühlte 58.9 °F
N
8.0
Wind Wechselnd Wind aus Süd-Südost
Gusts 20.0 mph

Heute
Max. -- | schwach -- °F
--% Regenrisiko
Gestern
Max. -- | schwach -- °F
Precip. -- inch
7:06 AM 7:37 PM
Erstes Viertel, 56% visible
Druck 30.13 inch
Sichtweite 10.0 Meilen
Wolken Teils Wolkig 900 ft
Wolkig 1700 ft
Wolkig 2600 ft
Taupunkt 36 °F
Feuchtigkeit 43%
Regen 0.02 inch
Schneehöhe Nicht verfügbar..
UV 16.0 von 12
Pollen 8.80 von 12
Luftqualität Nicht verfügbar..
Flu Activity Nicht verfügbar..
METAR KONP 272155Z AUTO 20014G18KT 10SM SCT009 BKN017 BKN026 12/11 A3013 RMK AO2

More Conditions Fewer Conditions

Druck 30.13 inch
Sichtweite 10.0 Meilen
Wolken Teils Wolkig 900 ft
Wolkig 1700 ft
Wolkig 2600 ft
Taupunkt 36 °F
Feuchtigkeit 43%
Regen 0.02 inch
Schneehöhe Nicht verfügbar..
UV 16.0 von 12
Pollen 8.80 von 12
Luftqualität Nicht verfügbar..
Flu Activity Nicht verfügbar..
METAR KONP 272155Z AUTO 20014G18KT 10SM SCT009 BKN017 BKN026 12/11 A3013 RMK AO2

More Conditions Fewer Conditions

10-Day Weather Forecast

Almanac

Astronomie

Mar. 27, 2015 Aufgang Untergang
Genaue Zeit
Bürgerliche Dämmerung
Nautische Dämmerung
Astronomische Dämmerung
Mond
Länge des sichtbaren Lichts
Tageslänge
Tomorrow will be .
, % of the Moon is Illuminated

Heutige Rekorde

State Highs State Lows

Community

WunderPhotos

Upload Photos

1,808,843 Fotos hochgeladen!

WunderBlogs® & News

Nearby

Luftqualität

  Luftqualität LQ Index Schadstoff
Not available.

Schneehöhe

Station Depth Höhe

Erdbebenaktivität

Stadt Distance Mag. Time & Date
Minimum magnitude displayed is 2.5.

küstennahe Wassertemperaturen

Ort Temperatur

Stations

Wetterstationen in der Umgebung

Stationsstandort Temp. Windchill Taupunkt Feuchtigkeit Wind Precip. Höhe Aktualisiert Art